Time;durP1;ratioP1;P1;durP2;ratioP2;P2;SDS_P1;SDS_P2;PMS_P1;PMS_P2;Temp;Humidity;BMP_temperature;BMP_pressure;BME280_temperature;BME280_humidity;BME280_pressure;Samples;Min_cycle;Max_cycle;Signal;HPM_P1;HPM_P2
2022/03/25 00:01:53;;;;;;;54.63;32.40;;;;;;;;;;5014433;28;20425;-47
2022/03/25 00:04:19;;;;;;;55.17;33.03;;;;;;;;;;5014151;28;20831;-48
2022/03/25 00:06:46;;;;;;;51.70;30.87;;;;;;;;;;5014249;28;20413;-46
2022/03/25 00:09:12;;;;;;;50.53;31.70;;;;;;;;;;5014195;28;20833;-46
2022/03/25 00:11:38;;;;;;;65.57;32.57;;;;;;;;;;5014164;28;20437;-46
2022/03/25 00:14:04;;;;;;;54.30;32.50;;;;;;;;;;5013291;28;20468;-46
2022/03/25 00:16:30;;;;;;;63.43;37.37;;;;;;;;;;5014148;28;20419;-46
2022/03/25 00:18:56;;;;;;;64.70;35.10;;;;;;;;;;5014087;28;20743;-47
2022/03/25 00:21:22;;;;;;;54.60;32.17;;;;;;;;;;5013678;28;20439;-47
2022/03/25 00:23:48;;;;;;;56.80;33.73;;;;;;;;;;5013801;28;20463;-46
2022/03/25 00:26:14;;;;;;;53.27;32.80;;;;;;;;;;5013942;28;20425;-47
2022/03/25 00:28:40;;;;;;;59.90;32.70;;;;;;;;;;5013943;28;20408;-48
2022/03/25 00:31:07;;;;;;;59.33;34.00;;;;;;;;;;5013539;28;20411;-51
2022/03/25 00:33:34;;;;;;;60.20;34.20;;;;;;;;;;5013666;28;20466;-46
2022/03/25 00:36:01;;;;;;;60.53;34.17;;;;;;;;;;5013789;28;20410;-47
2022/03/25 00:38:27;;;;;;;58.43;34.87;;;;;;;;;;5013699;28;20399;-47
2022/03/25 00:40:54;;;;;;;53.43;33.33;;;;;;;;;;5013512;28;20408;-47
2022/03/25 00:43:20;;;;;;;62.27;34.23;;;;;;;;;;5013477;28;21110;-46
2022/03/25 00:45:46;;;;;;;62.13;33.17;;;;;;;;;;5013599;28;20406;-46
2022/03/25 00:48:13;;;;;;;56.60;32.40;;;;;;;;;;5013530;28;20176;-47
2022/03/25 00:50:39;;;;;;;59.30;33.07;;;;;;;;;;5013253;28;20818;-47
2022/03/25 00:53:05;;;;;;;51.33;31.93;;;;;;;;;;5013323;28;20474;-49
2022/03/25 00:55:31;;;;;;;58.30;35.03;;;;;;;;;;5013341;28;20415;-51
2022/03/25 00:58:00;;;;;;;62.43;33.80;;;;;;;;;;5013342;28;20410;-47
2022/03/25 01:00:27;;;;;;;55.47;35.70;;;;;;;;;;5013095;28;20458;-46
2022/03/25 01:02:53;;;;;;;57.07;35.07;;;;;;;;;;5012831;28;20959;-46
2022/03/25 01:05:19;;;;;;;61.93;33.00;;;;;;;;;;5013168;28;20807;-46
2022/03/25 01:07:45;;;;;;;58.83;33.50;;;;;;;;;;5013175;28;20403;-47
2022/03/25 01:10:12;;;;;;;54.00;32.45;;;;;;;;;;5012897;28;20179;-47
2022/03/25 01:12:38;;;;;;;55.10;33.10;;;;;;;;;;5012931;28;20193;-47
2022/03/25 01:15:04;;;;;;;55.03;35.90;;;;;;;;;;5013688;28;20419;-46
2022/03/25 01:17:30;;;;;;;62.97;36.55;;;;;;;;;;5012887;28;20164;-47
2022/03/25 01:19:56;;;;;;;63.30;34.10;;;;;;;;;;5012708;28;20188;-47
2022/03/25 01:22:22;;;;;;;58.17;35.57;;;;;;;;;;5012775;28;20912;-46
2022/03/25 01:24:49;;;;;;;60.20;34.07;;;;;;;;;;5012800;28;20458;-47
2022/03/25 01:27:15;;;;;;;58.92;35.50;;;;;;;;;;5012562;28;20403;-46
2022/03/25 01:29:41;;;;;;;60.53;35.57;;;;;;;;;;5012602;28;20303;-46
2022/03/25 01:32:08;;;;;;;57.90;35.47;;;;;;;;;;5012434;28;20439;-46
2022/03/25 01:34:34;;;;;;;60.35;34.63;;;;;;;;;;5012609;28;20222;-48
2022/03/25 01:37:01;;;;;;;60.47;34.95;;;;;;;;;;5012667;28;20172;-47
2022/03/25 01:39:27;;;;;;;57.58;35.83;;;;;;;;;;5012375;28;20247;-47
2022/03/25 01:41:53;;;;;;;61.70;35.70;;;;;;;;;;5012454;28;20258;-47
2022/03/25 01:44:28;;;;;;;70.65;36.10;;;;;;;;;;5012455;28;20238;-47
2022/03/25 01:46:55;;;;;;;57.35;34.90;;;;;;;;;;5012627;28;20164;-47
2022/03/25 01:49:22;;;;;;;56.67;34.00;;;;;;;;;;5012219;28;20207;-55
2022/03/25 01:51:50;;;;;;;59.15;35.90;;;;;;;;;;5012346;28;20188;-47
2022/03/25 01:54:24;;;;;;;62.40;37.95;;;;;;;;;;5012406;28;20644;-46
2022/03/25 01:56:53;;;;;;;64.28;35.45;;;;;;;;;;5012246;28;20176;-48
2022/03/25 01:59:19;;;;;;;56.42;34.97;;;;;;;;;;5012192;28;20180;-46
2022/03/25 02:01:45;;;;;;;60.20;35.10;;;;;;;;;;5011573;28;20203;-46
2022/03/25 02:04:11;;;;;;;59.23;35.67;;;;;;;;;;5011652;28;20462;-46
2022/03/25 02:06:36;;;;;;;60.80;34.83;;;;;;;;;;5011796;28;20399;-47
2022/03/25 02:09:03;;;;;;;55.80;33.13;;;;;;;;;;5012162;28;20184;-47
2022/03/25 02:11:29;;;;;;;65.38;36.03;;;;;;;;;;5011910;28;20422;-47
2022/03/25 02:13:55;;;;;;;69.88;36.38;;;;;;;;;;5012086;28;20523;-46
2022/03/25 02:16:34;;;;;;;55.40;34.47;;;;;;;;;;5012063;28;20168;-46
2022/03/25 02:19:00;;;;;;;55.45;33.28;;;;;;;;;;5012127;28;20399;-46
2022/03/25 02:21:30;;;;;;;62.65;35.53;;;;;;;;;;5011774;28;20220;-46
2022/03/25 02:23:56;;;;;;;55.85;33.45;;;;;;;;;;5011902;28;20230;-46
2022/03/25 02:26:23;;;;;;;59.90;34.77;;;;;;;;;;5011908;28;20180;-46
2022/03/25 02:28:49;;;;;;;56.30;34.33;;;;;;;;;;5011990;28;20522;-49
2022/03/25 02:31:17;;;;;;;63.37;37.67;;;;;;;;;;5011809;28;20176;-47
2022/03/25 02:33:43;;;;;;;60.25;33.92;;;;;;;;;;5011925;28;20497;-46
2022/03/25 02:36:09;;;;;;;61.03;35.75;;;;;;;;;;5011925;28;20542;-47
2022/03/25 02:38:35;;;;;;;67.50;36.05;;;;;;;;;;5014354;28;20199;-47
2022/03/25 02:41:02;;;;;;;61.92;35.90;;;;;;;;;;5015647;28;20176;-46
2022/03/25 02:43:28;;;;;;;53.70;32.90;;;;;;;;;;5015590;28;20199;-46
2022/03/25 02:45:54;;;;;;;56.30;34.00;;;;;;;;;;5016432;28;20167;-51
2022/03/25 02:48:20;;;;;;;64.17;34.33;;;;;;;;;;5015734;28;20431;-51
2022/03/25 02:50:46;;;;;;;55.97;34.10;;;;;;;;;;5015582;28;20444;-51
2022/03/25 02:53:16;;;;;;;62.10;36.22;;;;;;;;;;5015486;28;20427;-51
2022/03/25 02:55:43;;;;;;;62.58;34.90;;;;;;;;;;5015888;28;20581;-51
2022/03/25 02:58:10;;;;;;;55.22;33.63;;;;;;;;;;5015619;28;20661;-52
2022/03/25 03:00:36;;;;;;;61.80;35.53;;;;;;;;;;5015342;28;20167;-51
2022/03/25 03:03:02;;;;;;;60.72;33.58;;;;;;;;;;5015295;28;20303;-51
2022/03/25 03:05:29;;;;;;;57.75;32.30;;;;;;;;;;5015681;28;20500;-52
2022/03/25 03:07:55;;;;;;;61.45;34.33;;;;;;;;;;5015321;28;20169;-52
2022/03/25 03:10:21;;;;;;;64.55;34.35;;;;;;;;;;5015366;28;20184;-51
2022/03/25 03:12:47;;;;;;;59.22;35.40;;;;;;;;;;5015258;28;20215;-52
2022/03/25 03:15:15;;;;;;;61.20;33.30;;;;;;;;;;5015253;28;20168;-51
2022/03/25 03:17:42;;;;;;;60.08;36.10;;;;;;;;;;5015215;28;20165;-52
2022/03/25 03:20:08;;;;;;;61.15;34.65;;;;;;;;;;5014964;28;20179;-52
2022/03/25 03:22:34;;;;;;;65.60;36.53;;;;;;;;;;5014887;28;20703;-51
2022/03/25 03:25:00;;;;;;;65.07;35.20;;;;;;;;;;5015105;28;20171;-51
2022/03/25 03:27:27;;;;;;;61.13;34.90;;;;;;;;;;5015063;28;20165;-52
2022/03/25 03:29:53;;;;;;;54.13;33.50;;;;;;;;;;5014827;28;20543;-52
2022/03/25 03:32:19;;;;;;;59.43;34.63;;;;;;;;;;5014853;28;20184;-50
2022/03/25 03:34:45;;;;;;;58.67;34.73;;;;;;;;;;5014891;28;20410;-51
2022/03/25 03:37:11;;;;;;;56.35;35.53;;;;;;;;;;5014878;28;20414;-51
2022/03/25 03:39:37;;;;;;;59.80;32.73;;;;;;;;;;5014627;28;20176;-51
2022/03/25 03:42:03;;;;;;;61.20;35.45;;;;;;;;;;5014697;28;20957;-51
2022/03/25 03:44:30;;;;;;;56.47;33.95;;;;;;;;;;5014634;28;20203;-51
2022/03/25 03:46:57;;;;;;;54.95;32.25;;;;;;;;;;5014672;28;20172;-51
2022/03/25 03:49:23;;;;;;;65.55;34.60;;;;;;;;;;5014320;28;20180;-51
2022/03/25 03:51:49;;;;;;;57.42;34.60;;;;;;;;;;5014349;28;20194;-50
2022/03/25 03:54:15;;;;;;;58.90;34.75;;;;;;;;;;5014569;28;20238;-50
2022/03/25 03:56:42;;;;;;;59.78;32.65;;;;;;;;;;5014676;28;20256;-51
2022/03/25 03:59:08;;;;;;;69.90;36.30;;;;;;;;;;5014452;28;20164;-50
2022/03/25 04:01:34;;;;;;;59.23;35.10;;;;;;;;;;5014036;28;20287;-52
2022/03/25 04:04:00;;;;;;;64.53;35.40;;;;;;;;;;5014112;28;20462;-49
2022/03/25 04:06:27;;;;;;;59.30;34.90;;;;;;;;;;5014278;28;20251;-51
2022/03/25 04:08:53;;;;;;;63.50;35.03;;;;;;;;;;5014336;28;20899;-52
2022/03/25 04:11:19;;;;;;;58.93;34.13;;;;;;;;;;5013995;28;20171;-51
2022/03/25 04:13:45;;;;;;;62.40;36.78;;;;;;;;;;5014136;28;20411;-52
2022/03/25 04:16:11;;;;;;;58.67;34.65;;;;;;;;;;5014165;28;20663;-52
2022/03/25 04:18:38;;;;;;;61.38;33.05;;;;;;;;;;5014001;28;20176;-51
2022/03/25 04:21:04;;;;;;;78.07;35.55;;;;;;;;;;5013876;28;20186;-50
2022/03/25 04:23:30;;;;;;;66.60;35.90;;;;;;;;;;5013792;28;20235;-52
2022/03/25 04:25:56;;;;;;;63.73;33.10;;;;;;;;;;5013919;28;20204;-51
2022/03/25 04:28:22;;;;;;;55.20;34.30;;;;;;;;;;5014042;28;20396;-51
2022/03/25 04:30:48;;;;;;;61.97;32.73;;;;;;;;;;5013654;28;20906;-51
2022/03/25 04:33:15;;;;;;;65.23;34.67;;;;;;;;;;5013589;28;20426;-50
2022/03/25 04:35:41;;;;;;;62.90;36.03;;;;;;;;;;5013960;28;20430;-51
2022/03/25 04:38:08;;;;;;;60.10;33.55;;;;;;;;;;5013724;28;20176;-51
2022/03/25 04:40:34;;;;;;;59.08;32.80;;;;;;;;;;5013475;28;20161;-51
2022/03/25 04:43:01;;;;;;;59.93;35.43;;;;;;;;;;5013415;28;20263;-50
2022/03/25 04:45:28;;;;;;;56.88;33.25;;;;;;;;;;5013510;28;20446;-51
2022/03/25 04:47:54;;;;;;;52.53;33.13;;;;;;;;;;5013480;28;20218;-51
2022/03/25 04:50:20;;;;;;;64.75;34.45;;;;;;;;;;5013395;28;20168;-47
2022/03/25 04:52:46;;;;;;;66.93;35.10;;;;;;;;;;5013422;28;20519;-46
2022/03/25 04:55:12;;;;;;;62.50;35.35;;;;;;;;;;5013437;28;20179;-46
2022/03/25 04:57:40;;;;;;;59.27;35.17;;;;;;;;;;5013449;28;20632;-46
2022/03/25 05:00:12;;;;;;;62.55;34.03;;;;;;;;;;5012505;28;20430;-46
2022/03/25 05:02:38;;;;;;;58.05;34.30;;;;;;;;;;5012924;28;20184;-46
2022/03/25 05:05:04;;;;;;;60.85;34.53;;;;;;;;;;5013309;28;20226;-46
2022/03/25 05:07:30;;;;;;;59.95;33.58;;;;;;;;;;5013306;28;20180;-46
2022/03/25 05:10:00;;;;;;;63.90;34.20;;;;;;;;;;5013194;28;20172;-46
2022/03/25 05:12:27;;;;;;;61.30;34.05;;;;;;;;;;5012993;28;20472;-48
2022/03/25 05:14:53;;;;;;;59.28;32.15;;;;;;;;;;5012916;28;20181;-47
2022/03/25 05:17:19;;;;;;;55.80;32.38;;;;;;;;;;5013048;28;20172;-46
2022/03/25 05:22:49;;;;;;;57.75;32.67;;;;;;;;;;5013048;28;20605;-49
2022/03/25 05:25:17;;;;;;;65.30;33.17;;;;;;;;;;5012715;28;20180;-46
2022/03/25 05:27:47;;;;;;;58.15;32.80;;;;;;;;;;5012905;28;20256;-47
2022/03/25 05:30:13;;;;;;;59.00;32.78;;;;;;;;;;5012671;28;20179;-50
2022/03/25 05:32:41;;;;;;;54.20;29.88;;;;;;;;;;5012666;28;20249;-46
2022/03/25 05:35:08;;;;;;;60.25;34.33;;;;;;;;;;5012778;28;20263;-47
2022/03/25 05:37:35;;;;;;;57.45;31.27;;;;;;;;;;5012731;28;20168;-47
2022/03/25 05:40:01;;;;;;;56.80;32.22;;;;;;;;;;5012700;28;20618;-47
2022/03/25 05:42:27;;;;;;;58.83;33.10;;;;;;;;;;5012566;28;20203;-46
2022/03/25 05:44:53;;;;;;;56.55;30.27;;;;;;;;;;5012350;28;20203;-46
2022/03/25 05:47:19;;;;;;;64.40;33.37;;;;;;;;;;5013027;28;20172;-47
2022/03/25 05:49:45;;;;;;;54.83;30.13;;;;;;;;;;5012286;28;20404;-46
2022/03/25 05:52:11;;;;;;;62.78;31.50;;;;;;;;;;5012282;28;20451;-46
2022/03/25 05:54:37;;;;;;;51.50;30.30;;;;;;;;;;5012422;28;20171;-47
2022/03/25 05:57:04;;;;;;;53.93;30.17;;;;;;;;;;5012564;28;20230;-47
2022/03/25 05:59:30;;;;;;;51.47;30.80;;;;;;;;;;5012248;28;20411;-46
2022/03/25 06:01:56;;;;;;;58.23;33.33;;;;;;;;;;5012044;28;20644;-51
2022/03/25 06:04:22;;;;;;;56.87;32.23;;;;;;;;;;5011645;28;20465;-51
2022/03/25 06:06:48;;;;;;;57.30;32.83;;;;;;;;;;5011486;28;20399;-47
2022/03/25 06:09:14;;;;;;;63.72;33.90;;;;;;;;;;5011573;28;20431;-48
2022/03/25 06:11:40;;;;;;;57.53;32.40;;;;;;;;;;5010985;28;20216;-50
2022/03/25 06:14:06;;;;;;;54.40;30.87;;;;;;;;;;5011416;28;20416;-48
2022/03/25 06:16:32;;;;;;;62.83;33.47;;;;;;;;;;5012488;28;20462;-48
2022/03/25 06:18:58;;;;;;;62.37;32.70;;;;;;;;;;5012069;28;20486;-48
2022/03/25 06:21:24;;;;;;;58.47;33.67;;;;;;;;;;5011530;28;20407;-47
2022/03/25 06:23:50;;;;;;;59.72;32.35;;;;;;;;;;5011801;28;21000;-47
2022/03/25 06:26:17;;;;;;;60.08;32.28;;;;;;;;;;5012079;28;20161;-47
2022/03/25 06:28:43;;;;;;;59.70;32.33;;;;;;;;;;5011902;28;20176;-48
2022/03/25 06:31:09;;;;;;;57.63;32.58;;;;;;;;;;5011646;28;20167;-49
2022/03/25 06:33:37;;;;;;;61.70;33.53;;;;;;;;;;5011843;28;20172;-48
2022/03/25 06:36:03;;;;;;;59.78;33.38;;;;;;;;;;5012137;28;20602;-47
2022/03/25 06:38:29;;;;;;;65.07;33.63;;;;;;;;;;5011897;28;20179;-49
2022/03/25 06:40:55;;;;;;;61.17;32.17;;;;;;;;;;5011631;28;20197;-48
2022/03/25 06:43:21;;;;;;;56.40;30.27;;;;;;;;;;5011627;28;20457;-48
2022/03/25 06:45:47;;;;;;;56.00;31.53;;;;;;;;;;5011830;28;20408;-48
2022/03/25 06:48:13;;;;;;;55.27;30.13;;;;;;;;;;5011868;28;20432;-48
2022/03/25 06:50:40;;;;;;;54.07;31.00;;;;;;;;;;5011546;28;20814;-49
2022/03/25 06:53:07;;;;;;;51.30;31.63;;;;;;;;;;5011700;28;20860;-50
2022/03/25 06:55:33;;;;;;;52.90;30.80;;;;;;;;;;5012089;28;20443;-51
2022/03/25 06:57:59;;;;;;;54.87;32.13;;;;;;;;;;5012102;28;20432;-51
2022/03/25 07:00:27;;;;;;;55.77;29.53;;;;;;;;;;5011712;28;20462;-49
2022/03/25 07:02:53;;;;;;;48.33;29.70;;;;;;;;;;5010792;28;20856;-50
2022/03/25 07:05:19;;;;;;;53.30;30.23;;;;;;;;;;5011506;28;20988;-50
2022/03/25 07:07:45;;;;;;;48.67;29.30;;;;;;;;;;5011405;28;20474;-50
2022/03/25 07:10:12;;;;;;;48.13;30.90;;;;;;;;;;5011178;28;20434;-50
2022/03/25 07:12:39;;;;;;;48.77;29.93;;;;;;;;;;5011213;28;20427;-49
2022/03/25 07:15:05;;;;;;;47.90;31.00;;;;;;;;;;5011624;28;20427;-51
2022/03/25 07:17:31;;;;;;;48.03;30.90;;;;;;;;;;5009540;28;20493;-48
2022/03/25 07:19:57;;;;;;;53.40;30.37;;;;;;;;;;5010571;28;20415;-49
2022/03/25 07:22:23;;;;;;;46.30;31.37;;;;;;;;;;5011455;28;20449;-48
2022/03/25 07:24:49;;;;;;;47.33;30.97;;;;;;;;;;5014136;28;20789;-50
2022/03/25 07:27:15;;;;;;;45.37;32.10;;;;;;;;;;5015156;28;20427;-50
2022/03/25 07:29:41;;;;;;;44.77;30.73;;;;;;;;;;5015058;28;20403;-50
2022/03/25 07:32:07;;;;;;;49.73;32.60;;;;;;;;;;5015106;28;20427;-49
2022/03/25 07:34:36;;;;;;;51.87;29.47;;;;;;;;;;5015115;28;20943;-50
2022/03/25 07:37:03;;;;;;;40.33;29.17;;;;;;;;;;5015154;28;20414;-50
2022/03/25 07:39:29;;;;;;;44.03;30.77;;;;;;;;;;5014765;28;20418;-50
2022/03/25 07:41:55;;;;;;;44.97;30.80;;;;;;;;;;5014834;28;20758;-49
2022/03/25 07:44:21;;;;;;;46.43;31.10;;;;;;;;;;5014935;28;20969;-50
2022/03/25 07:46:47;;;;;;;43.30;32.93;;;;;;;;;;5014767;28;20809;-50
2022/03/25 07:49:13;;;;;;;39.63;30.60;;;;;;;;;;5014885;28;20450;-50
2022/03/25 07:51:39;;;;;;;44.63;31.03;;;;;;;;;;5014924;28;20415;-49
2022/03/25 07:54:06;;;;;;;46.10;31.97;;;;;;;;;;5014808;28;20400;-50
2022/03/25 07:56:32;;;;;;;41.83;31.27;;;;;;;;;;5014902;28;20418;-49
2022/03/25 07:58:59;;;;;;;48.53;32.57;;;;;;;;;;5014706;28;20762;-50
2022/03/25 08:01:25;;;;;;;47.33;31.23;;;;;;;;;;5014289;28;20478;-51
2022/03/25 08:03:51;;;;;;;44.60;32.93;;;;;;;;;;5014436;28;20465;-50
2022/03/25 08:06:17;;;;;;;47.00;33.27;;;;;;;;;;5014466;28;20403;-52
2022/03/25 08:08:47;;;;;;;41.50;31.90;;;;;;;;;;5014435;28;20485;-50
2022/03/25 08:11:13;;;;;;;42.50;32.07;;;;;;;;;;5014154;28;20899;-49
2022/03/25 08:13:39;;;;;;;45.10;32.87;;;;;;;;;;5014301;28;20408;-49
2022/03/25 08:16:05;;;;;;;47.13;33.33;;;;;;;;;;5014154;28;20496;-50
2022/03/25 08:18:31;;;;;;;48.33;33.23;;;;;;;;;;5014354;28;20438;-50
2022/03/25 08:20:57;;;;;;;40.70;32.40;;;;;;;;;;5013978;28;20928;-51
2022/03/25 08:28:54;;;;;;;43.53;33.90;;;;;;;;;;5014100;28;20455;-50
2022/03/25 08:31:21;;;;;;;43.83;34.00;;;;;;;;;;5012767;28;20465;-49
2022/03/25 08:33:47;;;;;;;45.20;35.23;;;;;;;;;;5014102;28;20870;-49
2022/03/25 08:36:16;;;;;;;44.47;33.63;;;;;;;;;;5012885;28;20418;-50
2022/03/25 08:38:42;;;;;;;47.50;35.57;;;;;;;;;;5013805;28;20400;-51
2022/03/25 08:41:08;;;;;;;43.53;33.70;;;;;;;;;;5013180;28;20403;-51
2022/03/25 08:43:34;;;;;;;47.33;33.20;;;;;;;;;;5013718;28;20454;-51
2022/03/25 08:46:00;;;;;;;48.43;35.27;;;;;;;;;;5013559;28;20400;-50
2022/03/25 08:48:26;;;;;;;44.53;34.50;;;;;;;;;;5013610;28;20399;-49
2022/03/25 08:50:53;;;;;;;48.17;35.97;;;;;;;;;;5013403;28;20763;-50
2022/03/25 08:53:18;;;;;;;52.50;33.73;;;;;;;;;;5013120;28;20458;-51
2022/03/25 08:55:45;;;;;;;44.37;34.73;;;;;;;;;;5013254;28;20442;-51
2022/03/25 08:58:11;;;;;;;47.73;35.40;;;;;;;;;;5013496;28;20461;-51
2022/03/25 09:00:38;;;;;;;52.00;33.43;;;;;;;;;;5013196;28;20407;-50
2022/03/25 09:03:05;;;;;;;52.33;32.60;;;;;;;;;;5013078;28;20470;-50
2022/03/25 09:05:31;;;;;;;42.00;31.43;;;;;;;;;;5013282;28;20403;-50
2022/03/25 09:07:57;;;;;;;45.67;34.30;;;;;;;;;;5013230;28;20495;-50
2022/03/25 09:10:23;;;;;;;48.40;33.67;;;;;;;;;;5013038;28;20400;-50
2022/03/25 09:12:49;;;;;;;47.87;31.20;;;;;;;;;;5013260;28;20454;-50
2022/03/25 09:15:15;;;;;;;53.90;30.87;;;;;;;;;;5013176;28;20435;-50
2022/03/25 09:17:43;;;;;;;43.83;30.40;;;;;;;;;;5013168;28;20402;-50
2022/03/25 09:20:10;;;;;;;46.80;32.70;;;;;;;;;;5012837;28;20457;-49
2022/03/25 09:22:36;;;;;;;42.23;30.53;;;;;;;;;;5012847;28;20430;-50
2022/03/25 09:25:03;;;;;;;42.50;29.57;;;;;;;;;;5012843;28;20454;-51
2022/03/25 09:27:29;;;;;;;44.73;31.30;;;;;;;;;;5012982;28;20781;-49
2022/03/25 09:29:55;;;;;;;41.33;30.57;;;;;;;;;;5012744;28;20414;-49
2022/03/25 09:32:21;;;;;;;43.07;30.20;;;;;;;;;;5012767;28;20423;-51
2022/03/25 09:37:34;;;;;;;43.07;30.07;;;;;;;;;;5012854;28;20839;-50
2022/03/25 09:40:00;;;;;;;41.97;31.77;;;;;;;;;;5012441;28;20407;-50
2022/03/25 09:42:27;;;;;;;39.20;28.90;;;;;;;;;;5012571;28;20443;-50
2022/03/25 09:44:53;;;;;;;36.60;27.57;;;;;;;;;;5012838;28;20455;-50
2022/03/25 09:47:20;;;;;;;35.03;27.67;;;;;;;;;;5012430;28;20485;-51
2022/03/25 09:49:46;;;;;;;40.67;29.50;;;;;;;;;;5012415;28;20457;-50
2022/03/25 09:52:12;;;;;;;38.53;28.97;;;;;;;;;;5014439;28;20431;-51
2022/03/25 09:54:38;;;;;;;34.50;27.17;;;;;;;;;;5012423;28;20453;-51
2022/03/25 09:57:05;;;;;;;40.20;27.63;;;;;;;;;;5012432;28;20929;-48
2022/03/25 09:59:31;;;;;;;32.73;25.17;;;;;;;;;;5012047;28;20449;-50
2022/03/25 10:01:57;;;;;;;29.87;23.73;;;;;;;;;;5012300;28;20506;-50
2022/03/25 10:04:38;;;;;;;36.60;23.60;;;;;;;;;;5014266;28;20462;-49
2022/03/25 10:07:14;;;;;;;31.43;24.13;;;;;;;;;;5012210;28;20411;-49
2022/03/25 10:09:40;;;;;;;35.47;23.50;;;;;;;;;;5011913;28;20410;-50
2022/03/25 10:12:18;;;;;;;37.10;20.37;;;;;;;;;;5012094;28;20565;-50
2022/03/25 10:14:46;;;;;;;26.23;19.47;;;;;;;;;;5012136;28;20923;-50
2022/03/25 10:17:13;;;;;;;33.37;20.40;;;;;;;;;;5012218;28;20987;-51
2022/03/25 10:19:46;;;;;;;32.17;20.23;;;;;;;;;;5011956;28;20546;-49
2022/03/25 10:22:15;;;;;;;31.03;19.80;;;;;;;;;;5011833;28;20427;-51
2022/03/25 10:24:45;;;;;;;31.80;18.17;;;;;;;;;;5011969;28;20477;-51
2022/03/25 10:27:11;;;;;;;29.60;20.30;;;;;;;;;;5011951;28;20447;-50
2022/03/25 10:29:37;;;;;;;30.57;19.50;;;;;;;;;;4994164;28;20907;-50
2022/03/25 10:32:04;;;;;;;28.00;19.40;;;;;;;;;;5011865;28;20520;-50
2022/03/25 10:34:30;;;;;;;23.17;17.33;;;;;;;;;;5012010;28;20410;-50
2022/03/25 10:37:01;;;;;;;22.70;18.13;;;;;;;;;;5012341;28;20550;-49
2022/03/25 10:39:28;;;;;;;24.53;18.63;;;;;;;;;;5011804;28;20399;-49
2022/03/25 10:41:57;;;;;;;27.93;17.93;;;;;;;;;;5011655;28;20426;-50
2022/03/25 10:44:33;;;;;;;24.37;17.80;;;;;;;;;;5011836;28;20462;-50
2022/03/25 10:46:59;;;;;;;24.20;17.90;;;;;;;;;;5011926;28;20947;-49
2022/03/25 10:49:26;;;;;;;25.60;19.50;;;;;;;;;;5011727;28;20495;-51
2022/03/25 10:51:53;;;;;;;26.50;19.27;;;;;;;;;;5011737;28;20451;-49
2022/03/25 10:54:22;;;;;;;29.80;19.70;;;;;;;;;;5011846;28;20396;-50
2022/03/25 10:56:50;;;;;;;32.10;21.50;;;;;;;;;;5011383;28;20747;-51
2022/03/25 10:59:25;;;;;;;27.10;19.20;;;;;;;;;;5011706;28;20399;-51
2022/03/25 11:01:51;;;;;;;30.33;20.10;;;;;;;;;;5012930;28;20423;-49
2022/03/25 11:04:18;;;;;;;28.17;19.97;;;;;;;;;;5015394;28;20516;-51
2022/03/25 11:06:47;;;;;;;23.93;19.83;;;;;;;;;;5015362;28;20442;-50
2022/03/25 11:09:14;;;;;;;26.07;20.50;;;;;;;;;;5015433;28;20411;-50
2022/03/25 11:11:43;;;;;;;27.57;20.30;;;;;;;;;;5015134;28;20427;-52
2022/03/25 11:14:09;;;;;;;29.67;21.40;;;;;;;;;;5015527;28;20406;-49
2022/03/25 11:16:40;;;;;;;28.73;20.97;;;;;;;;;;5015410;28;20409;-50
2022/03/25 11:19:09;;;;;;;27.30;19.57;;;;;;;;;;5015303;28;20453;-50
2022/03/25 11:21:37;;;;;;;30.13;21.17;;;;;;;;;;5014950;28;20430;-50
2022/03/25 11:24:06;;;;;;;28.90;20.63;;;;;;;;;;5015084;28;21021;-50
2022/03/25 11:26:32;;;;;;;31.83;22.17;;;;;;;;;;5015269;28;20778;-50
2022/03/25 11:29:00;;;;;;;29.00;22.70;;;;;;;;;;5015238;28;20399;-50
2022/03/25 11:31:26;;;;;;;26.10;20.33;;;;;;;;;;5014973;28;20771;-51
2022/03/25 11:34:11;;;;;;;25.50;19.90;;;;;;;;;;5014907;28;20410;-50
2022/03/25 11:36:41;;;;;;;26.20;21.77;;;;;;;;;;5015119;28;20414;-51
2022/03/25 11:39:22;;;;;;;32.97;20.20;;;;;;;;;;5015013;28;20766;-49
2022/03/25 11:41:48;;;;;;;31.00;20.50;;;;;;;;;;5015303;28;20789;-52
2022/03/25 11:44:14;;;;;;;27.60;19.70;;;;;;;;;;5014707;28;20461;-51
2022/03/25 11:47:12;;;;;;;29.97;19.07;;;;;;;;;;5015050;28;20414;-50
2022/03/25 11:49:43;;;;;;;26.70;20.53;;;;;;;;;;4961012;28;20446;-50
2022/03/25 11:52:29;;;;;;;27.63;21.23;;;;;;;;;;5014539;28;20426;-52
2022/03/25 11:54:56;;;;;;;26.07;19.70;;;;;;;;;;5014512;28;20418;-51
2022/03/25 11:57:24;;;;;;;27.70;19.90;;;;;;;;;;5014980;28;20485;-50
2022/03/25 11:59:52;;;;;;;25.47;19.90;;;;;;;;;;5014496;28;20407;-51
2022/03/25 12:02:25;;;;;;;26.97;20.23;;;;;;;;;;5014467;28;20463;-51
2022/03/25 12:04:51;;;;;;;24.37;19.20;;;;;;;;;;5014436;28;20459;-50
2022/03/25 12:07:17;;;;;;;28.27;19.30;;;;;;;;;;5014333;28;20462;-50
2022/03/25 12:09:46;;;;;;;26.57;20.00;;;;;;;;;;5014066;28;20399;-51
2022/03/25 12:12:13;;;;;;;26.03;18.37;;;;;;;;;;5014050;28;20427;-51
2022/03/25 12:14:57;;;;;;;27.67;20.23;;;;;;;;;;5014401;28;20410;-51
2022/03/25 12:17:24;;;;;;;25.20;18.80;;;;;;;;;;5014377;28;20431;-50
2022/03/25 12:19:51;;;;;;;26.63;19.07;;;;;;;;;;5014032;28;20923;-50
2022/03/25 12:22:20;;;;;;;30.03;21.83;;;;;;;;;;5013964;28;20419;-51
2022/03/25 12:24:50;;;;;;;28.97;22.70;;;;;;;;;;5014258;28;20462;-49
2022/03/25 12:27:17;;;;;;;28.30;20.50;;;;;;;;;;5014051;28;20414;-50
2022/03/25 12:29:43;;;;;;;24.77;19.60;;;;;;;;;;5013623;28;20453;-50
2022/03/25 12:32:14;;;;;;;24.83;19.87;;;;;;;;;;5013248;28;20426;-51
2022/03/25 12:35:06;;;;;;;26.00;20.33;;;;;;;;;;5013784;28;20403;-52
2022/03/25 12:37:49;;;;;;;24.63;19.43;;;;;;;;;;5008494;28;20764;-51
2022/03/25 12:40:19;;;;;;;27.70;19.53;;;;;;;;;;4997079;28;20412;-51
2022/03/25 12:42:49;;;;;;;27.57;18.43;;;;;;;;;;5020228;28;20465;-51
2022/03/25 12:45:15;;;;;;;26.20;19.13;;;;;;;;;;5013895;28;20796;-52
2022/03/25 12:47:44;;;;;;;25.07;18.60;;;;;;;;;;5013851;28;20434;-51
2022/03/25 12:50:13;;;;;;;25.33;18.07;;;;;;;;;;5013593;28;20442;-52
2022/03/25 12:52:39;;;;;;;23.33;18.67;;;;;;;;;;5012190;28;20423;-51
2022/03/25 12:55:06;;;;;;;27.97;20.60;;;;;;;;;;5013632;28;20464;-51
2022/03/25 12:57:36;;;;;;;26.27;20.30;;;;;;;;;;5013549;28;20403;-51
2022/03/25 13:00:05;;;;;;;24.60;19.20;;;;;;;;;;5013662;28;20818;-52
2022/03/25 13:02:31;;;;;;;27.60;19.30;;;;;;;;;;5013284;28;20482;-52
2022/03/25 13:05:16;;;;;;;26.40;20.20;;;;;;;;;;5013410;28;21220;-51
2022/03/25 13:07:50;;;;;;;25.73;18.50;;;;;;;;;;5013364;28;20442;-52
2022/03/25 13:10:16;;;;;;;26.90;19.70;;;;;;;;;;5013163;28;20399;-52
2022/03/25 13:12:43;;;;;;;28.70;20.17;;;;;;;;;;5013227;28;20817;-53
2022/03/25 13:15:11;;;;;;;26.43;18.40;;;;;;;;;;5013289;28;20403;-52
2022/03/25 13:17:39;;;;;;;30.03;19.63;;;;;;;;;;5013660;28;20418;-49
2022/03/25 13:20:09;;;;;;;26.57;19.17;;;;;;;;;;5012858;28;20407;-49
2022/03/25 13:22:35;;;;;;;27.03;20.63;;;;;;;;;;5012368;28;20797;-52
2022/03/25 13:25:01;;;;;;;35.00;20.80;;;;;;;;;;5013201;28;20463;-52
2022/03/25 13:27:27;;;;;;;27.30;21.40;;;;;;;;;;5013144;28;20426;-49
2022/03/25 13:29:53;;;;;;;34.80;21.03;;;;;;;;;;5012250;28;20573;-49
2022/03/25 13:32:36;;;;;;;31.17;21.70;;;;;;;;;;5012156;28;20442;-53
2022/03/25 13:35:03;;;;;;;25.90;21.17;;;;;;;;;;5010127;28;20395;-51
2022/03/25 13:37:30;;;;;;;25.30;19.30;;;;;;;;;;5012205;28;20490;-49
2022/03/25 13:39:56;;;;;;;28.33;19.70;;;;;;;;;;5012555;28;20457;-52
2022/03/25 13:42:31;;;;;;;29.63;19.97;;;;;;;;;;5011279;28;20418;-50
2022/03/25 13:45:04;;;;;;;25.07;19.47;;;;;;;;;;5012548;28;20486;-49
2022/03/25 13:47:30;;;;;;;28.63;20.00;;;;;;;;;;5012898;28;20403;-52
2022/03/25 13:50:13;;;;;;;24.77;17.90;;;;;;;;;;5012565;28;20422;-49
2022/03/25 13:52:39;;;;;;;21.27;17.00;;;;;;;;;;5012918;28;20429;-51
2022/03/25 13:55:16;;;;;;;29.83;18.10;;;;;;;;;;5012111;28;21122;-52
2022/03/25 13:57:53;;;;;;;25.67;19.33;;;;;;;;;;5009662;28;20414;-50
2022/03/25 14:00:19;;;;;;;30.00;19.07;;;;;;;;;;5012230;28;20427;-50
2022/03/25 14:02:46;;;;;;;22.97;16.90;;;;;;;;;;5011991;28;20451;-51
2022/03/25 14:05:13;;;;;;;25.90;15.33;;;;;;;;;;5012315;28;20459;-52
2022/03/25 14:07:39;;;;;;;20.33;14.47;;;;;;;;;;5012322;28;20434;-51
2022/03/25 14:10:06;;;;;;;19.43;14.93;;;;;;;;;;5011957;28;20937;-50
2022/03/25 14:12:33;;;;;;;17.90;15.27;;;;;;;;;;5012207;28;20441;-50
2022/03/25 14:15:05;;;;;;;21.40;17.90;;;;;;;;;;5012290;28;20410;-50
2022/03/25 14:17:37;;;;;;;24.73;18.00;;;;;;;;;;5012080;28;20541;-51
2022/03/25 14:20:05;;;;;;;22.87;16.03;;;;;;;;;;5011953;28;20499;-52
2022/03/25 14:22:31;;;;;;;18.90;14.13;;;;;;;;;;5011851;28;20430;-53
2022/03/25 14:24:57;;;;;;;21.83;16.90;;;;;;;;;;5011864;28;20486;-51
2022/03/25 14:27:23;;;;;;;20.17;16.17;;;;;;;;;;5012099;28;20411;-52
2022/03/25 14:29:49;;;;;;;26.63;16.37;;;;;;;;;;5011884;28;20483;-51